Time;durP1;ratioP1;P1;durP2;ratioP2;P2;SDS_P1;SDS_P2;PMS_P1;PMS_P2;Temp;Humidity;BMP_temperature;BMP_pressure;BME280_temperature;BME280_humidity;BME280_pressure;Samples;Min_cycle;Max_cycle;Signal;HPM_P1;HPM_P2
2021/12/11 00:01:15;;;;;;;0.00;0.00;;;;;;;8.04;65.19;98342.94;4976504;28;20026;-74
2021/12/11 00:03:46;;;;;;;0.00;0.00;;;;;;;8.13;65.29;98332.47;4991189;28;20513;-76
2021/12/11 00:06:27;;;;;;;0.00;0.00;;;;;;;8.09;65.78;98348.25;4973770;28;20054;-77
2021/12/11 00:08:57;;;;;;;0.00;0.00;;;;;;;8.07;65.56;98344.25;4974901;28;20026;-75
2021/12/11 00:11:33;;;;;;;0.00;0.00;;;;;;;8.11;65.82;98358.59;4976228;28;20536;-75
2021/12/11 00:14:01;;;;;;;0.00;0.00;;;;;;;7.92;65.83;98331.81;4989052;28;20030;-76
2021/12/11 00:16:29;;;;;;;0.00;0.00;;;;;;;8.12;66.23;98357.53;4981192;28;20026;-74
2021/12/11 00:18:58;;;;;;;0.00;0.00;;;;;;;8.08;66.08;98348.50;4996411;28;20045;-75
2021/12/11 00:21:25;;;;;;;0.30;0.30;;;;;;;8.14;66.05;98360.69;4976168;28;20029;-75
2021/12/11 00:23:55;;;;;;;0.00;0.00;;;;;;;8.19;65.94;98368.69;4987469;28;20030;-76
2021/12/11 00:26:28;;;;;;;0.10;0.10;;;;;;;8.19;66.31;98371.34;4986848;28;20068;-74
2021/12/11 00:28:54;;;;;;;0.00;0.00;;;;;;;8.20;66.45;98374.78;5005636;28;20037;-74
2021/12/11 00:31:20;;;;;;;0.00;0.00;;;;;;;8.21;66.46;98379.84;4991118;28;20033;-76
2021/12/11 00:33:48;;;;;;;0.00;0.00;;;;;;;8.06;66.43;98356.78;4973890;28;20401;-75
2021/12/11 00:36:20;;;;;;;0.00;0.00;;;;;;;8.19;66.94;98387.34;4979642;28;20129;-73
2021/12/11 00:38:48;;;;;;;0.00;0.00;;;;;;;8.24;66.97;98394.47;4994795;28;20531;-74
2021/12/11 00:41:15;;;;;;;0.00;0.00;;;;;;;8.23;66.48;98401.69;5001412;28;20481;-73
2021/12/11 00:43:44;;;;;;;0.00;0.00;;;;;;;8.25;67.02;98410.19;4992301;28;20057;-74
2021/12/11 00:46:15;;;;;;;0.00;0.00;;;;;;;8.17;67.20;98392.13;4988320;28;20650;-73
2021/12/11 00:48:42;;;;;;;0.30;0.28;;;;;;;8.22;67.16;98391.31;5005062;28;20030;-73
2021/12/11 00:51:13;;;;;;;0.00;0.00;;;;;;;8.22;66.86;98396.63;4990153;28;20030;-73
2021/12/11 00:53:46;;;;;;;0.00;0.00;;;;;;;8.15;66.48;98381.75;4985521;28;20117;-74
2021/12/11 00:56:16;;;;;;;0.00;0.00;;;;;;;8.24;66.82;98397.13;5003842;28;20033;-75
2021/12/11 00:58:43;;;;;;;0.00;0.00;;;;;;;8.16;66.65;98388.66;4994429;28;20042;-75
2021/12/11 01:01:14;;;;;;;0.00;0.00;;;;;;;8.25;66.85;98390.75;4974960;28;20026;-73
2021/12/11 01:03:59;;;;;;;0.00;0.00;;;;;;;8.27;67.06;98400.03;4995424;28;20187;-75
2021/12/11 01:06:29;;;;;;;0.00;0.00;;;;;;;8.18;67.29;98386.50;4976252;28;20046;-73
2021/12/11 01:09:01;;;;;;;0.00;0.00;;;;;;;8.19;67.18;98382.00;5003910;28;20481;-74
2021/12/11 01:11:48;;;;;;;0.00;0.00;;;;;;;8.28;67.42;98403.53;4994317;28;20447;-74
2021/12/11 01:14:31;;;;;;;0.00;0.00;;;;;;;8.29;67.84;98391.78;4993051;28;20027;-76
2021/12/11 01:17:24;;;;;;;0.10;0.10;;;;;;;8.33;67.60;98396.28;4980260;28;20034;-77
2021/12/11 01:19:54;;;;;;;0.00;0.00;;;;;;;8.30;67.76;98382.69;4991742;28;20180;-75
2021/12/11 01:22:35;;;;;;;0.00;0.00;;;;;;;8.26;67.92;98392.34;4987295;28;20097;-75
2021/12/11 01:25:07;;;;;;;0.00;0.00;;;;;;;8.32;68.17;98386.72;4995589;28;20088;-74
2021/12/11 01:27:33;;;;;;;0.00;0.00;;;;;;;8.35;68.16;98385.34;4994143;28;20469;-76
2021/12/11 01:30:00;;;;;;;0.00;0.00;;;;;;;8.34;67.85;98378.44;4981692;28;20026;-74
2021/12/11 01:32:28;;;;;;;0.00;0.00;;;;;;;8.30;68.29;98374.72;5011169;28;20042;-73
2021/12/11 01:34:54;;;;;;;;;;;;;;;8.39;68.47;98378.38;5011387;28;20042;-74
2021/12/11 01:37:20;;;;;;;0.00;0.00;;;;;;;8.32;68.92;98365.41;4981151;28;19914;-76
2021/12/11 01:39:48;;;;;;;0.00;0.00;;;;;;;8.39;68.93;98369.63;4995399;28;20041;-75
2021/12/11 01:42:26;;;;;;;0.00;0.00;;;;;;;8.39;69.35;98364.28;4993545;28;20157;-76
2021/12/11 01:44:54;;;;;;;0.00;0.00;;;;;;;8.40;69.28;98366.66;4984192;28;20570;-77
2021/12/11 01:47:28;;;;;;;0.00;0.00;;;;;;;8.42;69.35;98375.19;4983575;28;20081;-81
2021/12/11 01:49:57;;;;;;;0.20;0.20;;;;;;;8.38;69.25;98352.81;4978173;28;20056;-77
2021/12/11 01:52:39;;;;;;;0.00;0.00;;;;;;;8.40;69.54;98357.84;4977238;28;20121;-78
2021/12/11 01:55:35;;;;;;;0.10;0.10;;;;;;;8.42;69.66;98361.03;4992412;28;20080;-77
2021/12/11 01:58:04;;;;;;;0.00;0.00;;;;;;;8.37;69.61;98382.41;4987551;28;20052;-76
2021/12/11 02:00:39;;;;;;;0.00;0.00;;;;;;;8.36;69.60;98373.63;5010087;28;20112;-76
2021/12/11 02:03:11;;;;;;;0.00;0.00;;;;;;;8.33;70.29;98366.19;4990547;28;20107;-80
2021/12/11 02:05:39;;;;;;;0.10;0.10;;;;;;;8.34;70.57;98367.78;4981629;28;20100;-77
2021/12/11 02:08:09;;;;;;;0.00;0.00;;;;;;;8.36;70.89;98373.63;4990650;28;20410;-77
2021/12/11 02:10:40;;;;;;;0.00;0.00;;;;;;;8.33;70.24;98372.28;4989722;28;20050;-78
2021/12/11 02:13:13;;;;;;;0.00;0.00;;;;;;;8.27;70.76;98367.28;4975279;28;20127;-76
2021/12/11 02:15:47;;;;;;;0.00;0.00;;;;;;;8.24;71.17;98355.31;4974639;28;20038;-75
2021/12/11 02:18:34;;;;;;;0.00;0.00;;;;;;;8.22;71.51;98352.13;4976219;28;20034;-77
2021/12/11 02:21:01;;;;;;;0.00;0.00;;;;;;;8.11;71.98;98346.06;4979548;28;20034;-77
2021/12/11 02:23:28;;;;;;;0.00;0.00;;;;;;;8.10;72.47;98343.69;4995100;28;20022;-75
2021/12/11 02:26:00;;;;;;;0.00;0.00;;;;;;;8.01;72.85;98332.84;5002667;28;20046;-74
2021/12/11 02:28:31;;;;;;;0.00;0.00;;;;;;;8.05;72.80;98338.41;4991023;28;20040;-74
2021/12/11 02:31:11;;;;;;;0.00;0.00;;;;;;;8.02;73.04;98351.19;4994173;28;20038;-75
2021/12/11 02:33:45;;;;;;;0.00;0.00;;;;;;;8.01;73.05;98348.81;4995276;28;20042;-76
2021/12/11 02:36:30;;;;;;;0.00;0.00;;;;;;;7.96;73.49;98346.97;4990802;28;20092;-75
2021/12/11 02:39:13;;;;;;;0.00;0.00;;;;;;;7.95;74.06;98345.38;4982012;28;20030;-76
2021/12/11 02:41:59;;;;;;;0.00;0.00;;;;;;;7.87;74.08;98329.97;4999244;28;20032;-76
2021/12/11 02:44:30;;;;;;;0.00;0.00;;;;;;;7.91;74.10;98351.53;5008068;28;20041;-79
2021/12/11 02:47:16;;;;;;;0.00;0.00;;;;;;;7.93;73.86;98349.41;4997368;28;20089;-75
2021/12/11 02:49:50;;;;;;;0.00;0.00;;;;;;;7.88;74.52;98334.25;4991346;28;20122;-77
2021/12/11 02:52:32;;;;;;;0.00;0.00;;;;;;;7.79;75.12;98326.03;4975216;28;20026;-76
2021/12/11 02:55:23;;;;;;;0.05;0.05;;;;;;;7.89;74.79;98337.72;5002816;28;20037;-77
2021/12/11 02:57:56;;;;;;;0.00;0.00;;;;;;;7.82;75.26;98340.66;4998063;28;20065;-76
2021/12/11 03:00:34;;;;;;;0.00;0.00;;;;;;;7.91;75.99;98338.22;4975665;28;20413;-76
2021/12/11 03:03:06;;;;;;;0.00;0.00;;;;;;;7.91;75.70;98357.66;4990770;28;20041;-76
2021/12/11 03:05:45;;;;;;;0.00;0.00;;;;;;;7.94;75.92;98354.44;4990208;28;20046;-75
2021/12/11 03:08:15;;;;;;;0.00;0.00;;;;;;;7.86;76.36;98339.06;4974987;28;20402;-74
2021/12/11 03:10:44;;;;;;;0.00;0.00;;;;;;;7.96;76.63;98357.63;4996128;28;20497;-75
2021/12/11 03:13:10;;;;;;;0.00;0.00;;;;;;;7.98;76.48;98360.00;4986038;28;20053;-73
2021/12/11 03:15:36;;;;;;;0.00;0.00;;;;;;;7.96;76.21;98346.19;4981800;28;20034;-78
2021/12/11 03:18:03;;;;;;;0.00;0.00;;;;;;;7.93;76.37;98330.75;4986220;28;20018;-72
2021/12/11 03:20:29;;;;;;;0.00;0.00;;;;;;;7.96;77.20;98343.53;4991902;28;20038;-72
2021/12/11 03:22:55;;;;;;;0.00;0.00;;;;;;;7.98;77.30;98342.19;4991871;28;20142;-72
2021/12/11 03:25:25;;;;;;;0.00;0.00;;;;;;;7.93;77.81;98331.53;4994483;28;20025;-72
2021/12/11 03:27:51;;;;;;;0.00;0.00;;;;;;;7.92;78.36;98348.63;5002608;28;20477;-74
2021/12/11 03:30:22;;;;;;;0.57;0.57;;;;;;;7.90;78.09;98340.09;5011636;28;20112;-73
2021/12/11 03:32:54;;;;;;;0.00;0.00;;;;;;;7.92;78.52;98334.47;5005167;28;20037;-75
2021/12/11 03:35:21;;;;;;;0.00;0.00;;;;;;;7.97;78.03;98329.13;4984680;28;20344;-76
2021/12/11 03:37:46;;;;;;;0.00;0.00;;;;;;;7.96;78.34;98332.88;5004650;28;20066;-76
2021/12/11 03:40:13;;;;;;;0.00;0.00;;;;;;;7.94;78.06;98327.81;4998717;28;20064;-77
2021/12/11 03:42:41;;;;;;;0.00;0.00;;;;;;;7.97;78.45;98331.78;4984518;28;20030;-75
2021/12/11 03:45:13;;;;;;;0.00;0.00;;;;;;;7.98;79.13;98314.75;4991109;28;20037;-74
2021/12/11 03:47:48;;;;;;;0.00;0.00;;;;;;;7.94;78.74;98305.72;4996649;28;20034;-72
2021/12/11 03:50:18;;;;;;;0.00;0.00;;;;;;;7.99;78.73;98305.69;4985658;28;20037;-71
2021/12/11 03:52:46;;;;;;;0.00;0.00;;;;;;;7.94;78.43;98306.50;4990051;28;20032;-75
2021/12/11 03:55:16;;;;;;;0.00;0.00;;;;;;;8.00;78.26;98321.38;4989851;28;20038;-74
2021/12/11 03:57:43;;;;;;;0.00;0.00;;;;;;;8.05;78.50;98322.44;4983429;28;20057;-76
2021/12/11 04:00:15;;;;;;;0.00;0.00;;;;;;;7.98;78.60;98298.75;4989437;28;20041;-78
2021/12/11 04:02:43;;;;;;;0.00;0.00;;;;;;;8.07;78.79;98299.78;4973865;28;20061;-75
2021/12/11 04:05:09;;;;;;;0.10;0.10;;;;;;;8.00;78.54;98288.63;4991239;28;20029;-76
2021/12/11 04:07:41;;;;;;;1.77;1.65;;;;;;;8.08;78.74;98303.22;4994761;28;20030;-75
2021/12/11 04:10:10;;;;;;;0.00;0.00;;;;;;;8.09;78.59;98305.63;4986371;28;20045;-74
2021/12/11 04:12:36;;;;;;;0.32;0.32;;;;;;;8.13;78.41;98305.84;4998828;28;20026;-77
2021/12/11 04:15:05;;;;;;;0.00;0.00;;;;;;;8.20;78.61;98316.19;4974392;28;20512;-77
2021/12/11 04:17:30;;;;;;;0.00;0.00;;;;;;;8.26;78.13;98325.75;4996584;28;20029;-77
2021/12/11 04:19:59;;;;;;;0.00;0.00;;;;;;;8.33;77.76;98344.88;4991726;28;20030;-76
2021/12/11 04:22:25;;;;;;;0.00;0.00;;;;;;;8.33;78.05;98345.66;4975618;28;20022;-75
2021/12/11 04:24:51;;;;;;;0.00;0.00;;;;;;;8.40;77.74;98350.69;4991458;28;20472;-72
2021/12/11 04:27:19;;;;;;;0.00;0.00;;;;;;;8.46;77.67;98362.09;4989610;28;20034;-73
2021/12/11 04:29:49;;;;;;;0.00;0.00;;;;;;;8.43;76.74;98357.31;4974042;28;20061;-74
2021/12/11 04:32:16;;;;;;;0.00;0.00;;;;;;;8.43;76.95;98352.00;4999485;28;20034;-74
2021/12/11 04:34:42;;;;;;;0.00;0.00;;;;;;;8.55;76.54;98367.66;4999840;28;20453;-74
2021/12/11 04:37:13;;;;;;;0.00;0.00;;;;;;;8.56;76.34;98348.72;5002460;28;20026;-74
2021/12/11 04:39:41;;;;;;;0.00;0.00;;;;;;;8.63;76.41;98351.84;4995680;28;20030;-74
2021/12/11 04:42:19;;;;;;;0.00;0.00;;;;;;;8.57;75.83;98342.31;4994207;28;20029;-73
2021/12/11 04:44:46;;;;;;;0.00;0.00;;;;;;;8.69;75.42;98357.94;5014554;28;20068;-74
2021/12/11 04:47:32;;;;;;;0.00;0.00;;;;;;;8.70;75.22;98348.84;4994120;28;20119;-75
2021/12/11 04:50:02;;;;;;;0.03;0.03;;;;;;;8.65;75.23;98333.72;4996923;28;20044;-76
2021/12/11 04:52:34;;;;;;;0.00;0.00;;;;;;;8.71;74.89;98331.00;4987813;28;20065;-74
2021/12/11 04:57:57;;;;;;;0.00;0.00;;;;;;;8.72;74.84;98333.38;5005828;28;20116;-76
2021/12/11 05:11:31;;;;;;;0.10;0.10;;;;;;;8.70;75.84;98305.41;4995976;28;20414;-78
2021/12/11 05:13:57;;;;;;;0.00;0.00;;;;;;;8.74;75.83;98312.56;4986913;28;20026;-73
2021/12/11 05:16:22;;;;;;;0.25;0.25;;;;;;;8.68;76.01;98294.22;4984402;28;20520;-73
2021/12/11 05:18:48;;;;;;;0.32;0.32;;;;;;;8.76;75.91;98288.28;5004666;28;20027;-75
2021/12/11 05:21:17;;;;;;;0.00;0.00;;;;;;;8.83;75.39;98294.09;4976653;28;20457;-74
2021/12/11 05:23:43;;;;;;;0.08;0.08;;;;;;;8.87;75.41;98299.66;5005606;28;20276;-72
2021/12/11 05:26:09;;;;;;;0.00;0.00;;;;;;;8.91;75.69;98303.31;5011902;28;20053;-71
2021/12/11 05:28:35;;;;;;;0.20;0.20;;;;;;;8.92;75.73;98291.59;5006857;28;20481;-73
2021/12/11 05:31:04;;;;;;;0.00;0.00;;;;;;;8.99;75.45;98294.72;4994017;28;20034;-74
2021/12/11 05:33:30;;;;;;;0.10;0.10;;;;;;;8.99;75.21;98291.25;5010960;28;20080;-75
2021/12/11 05:35:56;;;;;;;0.35;0.35;;;;;;;9.04;74.79;98299.19;4996169;28;20030;-75
2021/12/11 05:38:23;;;;;;;0.00;0.00;;;;;;;9.09;74.48;98309.81;5012494;28;20060;-73
2021/12/11 05:40:53;;;;;;;0.00;0.00;;;;;;;9.11;74.61;98305.78;5005389;28;20034;-75
2021/12/11 05:43:20;;;;;;;0.00;0.00;;;;;;;9.14;74.16;98299.06;4977000;28;20101;-75
2021/12/11 05:45:46;;;;;;;0.00;0.00;;;;;;;9.13;74.38;98276.16;4993500;28;20117;-72
2021/12/11 05:48:12;;;;;;;0.00;0.00;;;;;;;9.21;74.60;98290.72;4994666;28;20125;-72
2021/12/11 05:50:50;;;;;;;0.10;0.10;;;;;;;9.24;74.09;98292.81;4979633;28;20462;-72
2021/12/11 05:53:18;;;;;;;0.00;0.00;;;;;;;9.19;74.21;98287.56;5000048;28;20022;-72
2021/12/11 05:55:47;;;;;;;0.10;0.10;;;;;;;9.28;74.19;98310.66;5003308;28;20037;-74
2021/12/11 05:58:21;;;;;;;0.05;0.05;;;;;;;9.28;74.24;98307.19;4985790;28;20484;-75
2021/12/11 06:00:49;;;;;;;0.10;0.10;;;;;;;9.24;74.52;98293.63;4997303;28;20026;-75
2021/12/11 06:03:15;;;;;;;0.00;0.00;;;;;;;9.31;74.54;98306.59;4991029;28;20038;-73
2021/12/11 06:05:42;;;;;;;0.00;0.00;;;;;;;9.29;74.57;98304.22;4993059;28;20158;-74
2021/12/11 06:08:10;;;;;;;0.00;0.00;;;;;;;9.37;74.69;98304.69;4975861;28;20034;-73
2021/12/11 06:10:36;;;;;;;0.00;0.00;;;;;;;9.34;74.35;98294.56;5006058;28;20030;-73
2021/12/11 06:13:03;;;;;;;0.10;0.10;;;;;;;9.41;74.49;98311.84;4991550;28;20382;-73
2021/12/11 06:15:30;;;;;;;0.00;0.00;;;;;;;9.41;74.85;98324.38;4984247;28;20038;-75
2021/12/11 06:17:56;;;;;;;0.00;0.00;;;;;;;9.38;74.37;98308.94;4997306;28;20057;-75
2021/12/11 06:20:25;;;;;;;0.03;0.03;;;;;;;9.40;74.76;98302.25;4975911;28;20117;-76
2021/12/11 06:22:51;;;;;;;0.00;0.00;;;;;;;9.38;74.80;98301.72;4975505;28;20034;-75
2021/12/11 06:25:25;;;;;;;0.00;0.00;;;;;;;9.34;75.30;98302.56;4995404;28;20045;-74
2021/12/11 06:27:50;;;;;;;0.00;0.00;;;;;;;9.35;75.28;98314.84;4987731;28;20027;-75
2021/12/11 06:30:18;;;;;;;0.03;0.03;;;;;;;9.36;75.18;98319.91;4997990;28;20034;-76
2021/12/11 06:32:44;;;;;;;0.00;0.00;;;;;;;9.38;75.13;98315.06;4975432;28;20041;-76
2021/12/11 06:35:19;;;;;;;0.00;0.00;;;;;;;9.42;75.80;98316.09;4988878;28;20034;-76
2021/12/11 06:37:45;;;;;;;0.03;0.03;;;;;;;9.44;77.69;98305.13;5006012;28;20128;-74
2021/12/11 06:40:11;;;;;;;0.10;0.10;;;;;;;9.51;78.59;98299.41;5011402;28;20108;-74
2021/12/11 06:42:37;;;;;;;0.00;0.00;;;;;;;9.57;78.24;98282.25;4991814;28;20071;-75
2021/12/11 06:45:04;;;;;;;0.00;0.00;;;;;;;9.60;78.18;98279.03;4991799;28;20026;-75
2021/12/11 06:47:29;;;;;;;0.03;0.03;;;;;;;9.76;77.89;98298.28;4975597;28;20117;-73
2021/12/11 06:49:55;;;;;;;0.90;0.63;;;;;;;9.81;77.54;98278.75;5008892;28;20216;-74
2021/12/11 06:52:23;;;;;;;0.00;0.00;;;;;;;9.93;77.52;98285.22;5008369;28;20048;-74
2021/12/11 06:54:49;;;;;;;0.00;0.00;;;;;;;9.97;77.26;98272.06;4990806;28;20394;-74
2021/12/11 06:57:15;;;;;;;1.65;0.85;;;;;;;10.17;77.13;98291.56;5001763;28;20030;-74
2021/12/11 06:59:41;;;;;;;0.28;0.28;;;;;;;10.21;77.13;98279.19;4980203;28;20034;-75
2021/12/11 07:02:06;;;;;;;0.00;0.00;;;;;;;10.33;77.03;98282.19;4999488;28;20030;-75
2021/12/11 07:04:33;;;;;;;0.15;0.15;;;;;;;10.39;76.21;98265.03;4974951;28;20484;-75
2021/12/11 07:06:59;;;;;;;0.10;0.10;;;;;;;10.39;75.38;98264.25;4991762;28;20050;-72
2021/12/11 07:09:26;;;;;;;0.00;0.00;;;;;;;10.47;75.35;98255.53;4992623;28;20557;-72
2021/12/11 07:11:54;;;;;;;0.10;0.10;;;;;;;10.65;74.86;98285.19;4999438;28;20104;-73
2021/12/11 07:14:23;;;;;;;0.00;0.00;;;;;;;10.80;75.02;98290.25;5011006;28;20390;-72
2021/12/11 07:16:49;;;;;;;0.22;0.22;;;;;;;10.90;74.11;98297.28;4990209;28;20307;-73
2021/12/11 07:19:16;;;;;;;0.75;0.75;;;;;;;10.80;72.93;98265.38;4996604;28;20030;-73
2021/12/11 07:21:42;;;;;;;0.30;0.30;;;;;;;11.04;72.86;98283.91;4992661;28;20042;-70
2021/12/11 07:24:13;;;;;;;0.28;0.28;;;;;;;11.20;72.28;98306.63;4994582;28;20065;-70
2021/12/11 07:26:39;;;;;;;0.00;0.00;;;;;;;11.40;71.75;98311.84;5011037;28;20030;-73
2021/12/11 07:29:16;;;;;;;19.42;0.77;;;;;;;11.54;71.49;98318.75;5007718;28;20041;-71
2021/12/11 07:31:43;;;;;;;0.00;0.00;;;;;;;11.59;70.65;98312.50;4993030;28;20030;-72
2021/12/11 07:34:09;;;;;;;0.03;0.03;;;;;;;11.76;70.35;98335.22;4991862;28;20038;-72
2021/12/11 07:36:35;;;;;;;0.00;0.00;;;;;;;11.84;69.76;98346.00;5004939;28;20810;-73
2021/12/11 07:39:06;;;;;;;0.03;0.03;;;;;;;11.81;69.20;98327.84;5010588;28;20033;-72
2021/12/11 07:41:32;;;;;;;0.00;0.00;;;;;;;11.95;69.38;98349.25;5005964;28;20034;-75
2021/12/11 07:43:58;;;;;;;0.00;0.00;;;;;;;11.96;68.66;98348.19;4990366;28;20031;-72
2021/12/11 07:46:27;;;;;;;0.03;0.03;;;;;;;11.92;69.02;98341.03;4995540;28;20026;-73
2021/12/11 07:48:52;;;;;;;0.32;0.32;;;;;;;11.98;68.93;98354.03;4991802;28;20409;-71
2021/12/11 07:51:20;;;;;;;0.00;0.00;;;;;;;12.01;69.60;98347.25;5002605;28;20044;-73
2021/12/11 07:53:49;;;;;;;0.00;0.00;;;;;;;12.02;69.49;98346.16;5011270;28;20041;-72
2021/12/11 07:56:17;;;;;;;;;;;;;;;12.04;68.90;98340.53;5007914;28;20517;-73
2021/12/11 07:58:43;;;;;;;0.68;0.68;;;;;;;12.02;69.25;98335.44;5000148;28;19943;-73
2021/12/11 08:01:09;;;;;;;1.55;0.85;;;;;;;11.99;69.68;98328.03;5010699;28;20100;-73
2021/12/11 08:03:36;;;;;;;0.00;0.00;;;;;;;12.03;69.59;98323.63;4995562;28;20088;-73
2021/12/11 08:06:03;;;;;;;0.10;0.10;;;;;;;12.05;69.83;98326.00;4995752;28;20046;-73
2021/12/11 08:08:29;;;;;;;0.10;0.10;;;;;;;11.97;70.58;98309.59;4997364;28;20116;-73
2021/12/11 08:10:59;;;;;;;0.22;0.22;;;;;;;11.93;70.73;98308.56;5010141;28;20636;-72
2021/12/11 08:13:26;;;;;;;0.08;0.08;;;;;;;11.90;72.11;98295.78;4991609;28;20494;-72
2021/12/11 08:15:55;;;;;;;0.00;0.00;;;;;;;11.84;72.72;98300.44;4990682;28;20105;-72
2021/12/11 08:18:22;;;;;;;0.00;0.00;;;;;;;11.89;72.46;98312.94;4998456;28;20054;-74
2021/12/11 08:20:48;;;;;;;0.00;0.00;;;;;;;11.93;72.74;98315.81;5007436;28;20045;-73
2021/12/11 08:23:16;;;;;;;0.00;0.00;;;;;;;11.82;73.23;98305.31;4984011;28;20026;-73
2021/12/11 08:25:43;;;;;;;0.00;0.00;;;;;;;11.67;73.96;98285.03;5005093;28;20092;-73
2021/12/11 08:28:12;;;;;;;0.08;0.08;;;;;;;11.82;75.27;98308.00;4987199;28;20725;-72
2021/12/11 08:30:40;;;;;;;0.57;0.57;;;;;;;11.54;75.09;98291.97;4990246;28;20034;-73
2021/12/11 08:33:07;;;;;;;0.28;0.28;;;;;;;11.68;75.05;98308.03;4997534;28;20045;-72
2021/12/11 08:35:32;;;;;;;0.15;0.15;;;;;;;11.57;75.69;98306.69;5014541;28;20033;-71
2021/12/11 08:37:59;;;;;;;0.00;0.00;;;;;;;11.58;76.32;98312.81;5009332;28;20033;-72
2021/12/11 08:40:29;;;;;;;0.00;0.00;;;;;;;11.42;76.91;98294.38;4997606;28;20045;-72
2021/12/11 08:42:57;;;;;;;9.13;0.85;;;;;;;11.38;77.57;98291.50;4983613;28;20058;-72
2021/12/11 08:45:26;;;;;;;0.00;0.00;;;;;;;11.33;78.01;98291.63;4994633;28;20030;-72
2021/12/11 08:47:59;;;;;;;0.00;0.00;;;;;;;11.30;78.45;98289.56;4984577;28;20034;-73
2021/12/11 08:50:30;;;;;;;0.00;0.00;;;;;;;11.25;78.00;98288.88;4991744;28;20030;-72
2021/12/11 08:52:58;;;;;;;0.00;0.00;;;;;;;11.18;78.98;98283.91;4996118;28;20125;-72
2021/12/11 08:55:29;;;;;;;0.00;0.00;;;;;;;11.17;78.76;98280.44;4994377;28;20030;-72
2021/12/11 08:57:56;;;;;;;0.00;0.00;;;;;;;11.15;80.40;98290.63;4999086;28;20033;-71
2021/12/11 09:00:31;;;;;;;0.00;0.00;;;;;;;11.01;81.65;98269.25;5014080;28;20018;-71
2021/12/11 09:03:02;;;;;;;0.00;0.00;;;;;;;10.98;83.01;98256.47;5013786;28;20413;-73
2021/12/11 09:05:51;;;;;;;0.00;0.00;;;;;;;11.00;83.97;98269.56;4987576;28;20053;-72
2021/12/11 09:08:32;;;;;;;0.00;0.00;;;;;;;10.93;84.48;98261.91;4994641;28;20033;-75
2021/12/11 09:11:07;;;;;;;0.00;0.00;;;;;;;10.89;85.63;98242.22;4977964;28;20117;-72
2021/12/11 09:13:45;;;;;;;0.22;0.22;;;;;;;10.83;86.10;98238.06;4976710;28;20097;-72
2021/12/11 09:16:22;;;;;;;0.30;0.30;;;;;;;10.83;86.94;98238.06;4995052;28;20060;-71
2021/12/11 09:18:56;;;;;;;0.00;0.00;;;;;;;10.71;87.36;98227.84;5010722;28;20026;-71
2021/12/11 09:21:44;;;;;;;0.00;0.00;;;;;;;10.70;88.42;98227.03;4993780;28;20026;-72
2021/12/11 09:24:18;;;;;;;0.00;0.00;;;;;;;10.64;89.03;98222.09;5008367;28;20044;-72
2021/12/11 09:26:58;;;;;;;0.75;0.75;;;;;;;10.63;90.23;98223.97;4996437;28;20033;-72
2021/12/11 09:29:35;;;;;;;0.30;0.30;;;;;;;10.60;90.50;98224.56;4975617;28;20033;-72
2021/12/11 09:32:09;;;;;;;0.10;0.10;;;;;;;10.54;91.97;98215.06;4993812;28;20030;-72
2021/12/11 09:34:53;;;;;;;0.32;0.32;;;;;;;10.39;93.19;98200.09;4993077;28;20030;-71
2021/12/11 09:37:19;;;;;;;0.15;0.15;;;;;;;10.42;94.21;98212.84;5008086;28;20026;-71
2021/12/11 09:39:58;;;;;;;0.35;0.35;;;;;;;10.43;93.84;98213.66;5000696;28;20109;-70
2021/12/11 09:42:23;;;;;;;1.95;1.20;;;;;;;10.44;94.11;98207.22;4993763;28;20481;-72
2021/12/11 09:45:08;;;;;;;0.25;0.25;;;;;;;10.36;95.19;98204.16;4993509;28;20038;-70
2021/12/11 09:47:40;;;;;;;0.30;0.30;;;;;;;10.40;95.22;98207.81;4993490;28;20410;-71
2021/12/11 09:50:13;;;;;;;0.05;0.05;;;;;;;10.38;96.42;98201.19;4992984;28;20027;-71
2021/12/11 09:52:43;;;;;;;0.00;0.00;;;;;;;10.37;97.46;98216.41;4992608;28;20030;-71
2021/12/11 09:55:14;;;;;;;0.73;0.68;;;;;;;10.33;98.65;98207.38;4992948;28;20030;-69
2021/12/11 09:57:43;;;;;;;0.00;0.00;;;;;;;10.34;99.38;98202.81;4992730;28;20034;-71
2021/12/11 10:00:27;;;;;;;0.20;0.20;;;;;;;10.25;99.74;98192.81;4992900;28;20022;-71
2021/12/11 10:02:53;;;;;;;0.03;0.03;;;;;;;10.33;100.00;98187.88;4994382;28;20406;-70
2021/12/11 10:05:46;;;;;;;0.10;0.10;;;;;;;10.32;100.00;98181.72;5004301;28;20452;-71
2021/12/11 10:08:28;;;;;;;0.00;0.00;;;;;;;10.32;100.00;98180.94;4990131;28;20169;-71
2021/12/11 10:11:16;;;;;;;0.30;0.30;;;;;;;10.25;100.00;98179.44;5007565;28;20029;-70
2021/12/11 10:13:47;;;;;;;0.00;0.00;;;;;;;10.34;100.00;98214.31;5010700;28;20445;-70
2021/12/11 10:16:15;;;;;;;0.43;0.43;;;;;;;10.28;100.00;98169.25;5010576;28;20060;-70
2021/12/11 10:18:42;;;;;;;0.10;0.10;;;;;;;10.34;100.00;98192.91;4990413;28;20128;-71
2021/12/11 10:21:13;;;;;;;0.00;0.00;;;;;;;10.33;100.00;98186.00;5005950;28;20413;-70
2021/12/11 10:23:42;;;;;;;0.00;0.00;;;;;;;10.27;100.00;98170.34;4982108;28;20034;-71
2021/12/11 10:26:10;;;;;;;0.43;0.43;;;;;;;10.27;100.00;98173.81;4992352;28;20109;-71
2021/12/11 10:28:38;;;;;;;;;;;;;;;10.33;100.00;98185.22;4980013;28;20129;-70
2021/12/11 10:31:08;;;;;;;0.10;0.10;;;;;;;10.21;100.00;98172.31;4992516;28;19917;-71
2021/12/11 10:33:34;;;;;;;0.32;0.32;;;;;;;10.25;100.00;98162.63;5010252;28;20025;-72
2021/12/11 10:36:05;;;;;;;0.00;0.00;;;;;;;10.24;100.00;98151.16;5009533;28;20508;-72
2021/12/11 10:38:31;;;;;;;0.00;0.00;;;;;;;10.32;100.00;98165.69;4980500;28;20030;-72
2021/12/11 10:41:00;;;;;;;0.00;0.00;;;;;;;10.24;100.00;98155.69;5008495;28;20408;-71
2021/12/11 10:43:33;;;;;;;0.00;0.00;;;;;;;10.32;100.00;98156.91;5011623;28;20077;-73
2021/12/11 10:46:03;;;;;;;0.52;0.52;;;;;;;10.25;100.00;98154.59;5011891;28;20034;-72
2021/12/11 10:48:32;;;;;;;0.30;0.30;;;;;;;10.36;100.00;98184.59;5011737;28;20029;-73
2021/12/11 10:51:02;;;;;;;0.30;0.30;;;;;;;10.25;100.00;98158.06;5012383;28;20026;-72
2021/12/11 10:53:30;;;;;;;0.10;0.10;;;;;;;10.29;100.00;98160.13;5009081;28;20042;-73
2021/12/11 10:55:59;;;;;;;0.00;0.00;;;;;;;10.29;100.00;98149.44;4981283;28;20018;-73
2021/12/11 10:58:32;;;;;;;0.50;0.50;;;;;;;10.29;100.00;98150.25;4974740;28;20817;-73
2021/12/11 11:01:06;;;;;;;1.17;0.43;;;;;;;10.22;100.00;98131.94;4979190;28;20077;-72
2021/12/11 11:03:39;;;;;;;0.10;0.10;;;;;;;10.32;100.00;98149.66;4990345;28;20121;-72
2021/12/11 11:06:06;;;;;;;0.43;0.40;;;;;;;10.41;100.00;98163.97;4992110;28;20084;-74
2021/12/11 11:08:32;;;;;;;0.82;0.82;;;;;;;10.43;100.00;98168.22;4992091;28;20064;-73
2021/12/11 11:11:04;;;;;;;0.00;0.00;;;;;;;10.37;100.00;98156.81;5002371;28;20073;-73
2021/12/11 11:13:30;;;;;;;0.10;0.10;;;;;;;10.46;100.00;98165.75;5011810;28;20065;-71
2021/12/11 11:15:57;;;;;;;0.00;0.00;;;;;;;10.43;100.00;98139.59;5001108;28;20134;-71
2021/12/11 11:18:25;;;;;;;0.10;0.10;;;;;;;10.45;100.00;98125.94;4982469;28;20477;-71
2021/12/11 11:21:02;;;;;;;0.65;0.63;;;;;;;10.46;100.00;98117.63;4991839;28;20046;-73
2021/12/11 11:23:28;;;;;;;0.00;0.00;;;;;;;10.54;100.00;98127.59;4995843;28;20121;-73
2021/12/11 11:25:57;;;;;;;0.03;0.03;;;;;;;10.45;100.00;98097.34;4998057;28;20356;-72
2021/12/11 11:28:26;;;;;;;0.08;0.08;;;;;;;10.49;100.00;98105.56;4999440;28;20045;-71
2021/12/11 11:30:59;;;;;;;0.00;0.00;;;;;;;10.57;100.00;98110.97;5005912;28;20034;-73
2021/12/11 11:33:26;;;;;;;0.20;0.20;;;;;;;10.66;100.00;98112.97;5011119;28;20113;-71
2021/12/11 11:35:52;;;;;;;0.00;0.00;;;;;;;10.67;100.00;98109.97;5011415;28;20030;-71
2021/12/11 11:38:23;;;;;;;0.20;0.20;;;;;;;10.73;100.00;98105.31;5011482;28;20026;-71
2021/12/11 11:40:54;;;;;;;0.20;0.20;;;;;;;10.72;100.00;98099.16;5011175;28;20037;-72
2021/12/11 11:43:21;;;;;;;0.00;0.00;;;;;;;10.61;100.00;98075.63;5011262;28;20022;-73
2021/12/11 11:45:52;;;;;;;0.13;0.13;;;;;;;10.80;100.00;98092.34;4989528;28;20109;-73
2021/12/11 11:48:21;;;;;;;0.00;0.00;;;;;;;10.80;100.00;98086.19;4991601;28;20057;-73
2021/12/11 11:50:47;;;;;;;;;;;;;;;10.89;100.00;98089.75;4991877;28;20045;-72
2021/12/11 11:53:13;;;;;;;0.10;0.10;;;;;;;10.86;100.00;98083.09;4991900;28;19910;-73
2021/12/11 11:55:46;;;;;;;0.00;0.00;;;;;;;10.99;100.00;98070.00;4991462;28;20112;-71
2021/12/11 11:58:12;;;;;;;0.30;0.30;;;;;;;11.02;100.00;98077.41;4996769;28;20050;-71
2021/12/11 12:00:43;;;;;;;0.00;0.00;;;;;;;11.10;100.00;98095.41;5001145;28;20033;-71
2021/12/11 12:03:13;;;;;;;0.40;0.40;;;;;;;11.12;100.00;98074.50;4991428;28;20058;-70
2021/12/11 12:05:42;;;;;;;0.00;0.00;;;;;;;11.23;100.00;98071.56;4990401;28;20125;-71